TimeCST,TemperatureF,Dew PointF,Humidity,Sea Level PressureIn,VisibilityMPH,Wind Direction,Wind SpeedMPH,Gust SpeedMPH,PrecipitationIn,Events,Conditions,WindDirDegrees,DateUTC
12:53 AM,41.0,28.0,60,30.22,10.0,SW,6.9,-,N/A,,Mostly Cloudy,230,2013-01-06 06:53:00
1:53 AM,39.0,28.0,65,30.22,10.0,SW,4.6,-,N/A,,Scattered Clouds,220,2013-01-06 07:53:00
2:53 AM,37.0,28.0,70,30.21,10.0,SW,6.9,-,N/A,,Mostly Cloudy,220,2013-01-06 08:53:00
4:53 AM,37.9,30.0,73,30.18,10.0,SSW,6.9,-,N/A,,Overcast,210,2013-01-06 10:53:00
6:53 AM,39.0,32.0,76,30.20,10.0,SW,8.1,-,N/A,,Overcast,230,2013-01-06 12:53:00
7:53 AM,39.0,32.0,76,30.20,10.0,SSW,10.4,-,N/A,,Mostly Cloudy,210,2013-01-06 13:53:00
8:53 AM,41.0,34.0,76,30.20,10.0,SW,10.4,-,N/A,,Clear,230,2013-01-06 14:53:00
10:53 AM,46.0,34.0,63,30.19,10.0,West,15.0,21.9,N/A,,Mostly Cloudy,270,2013-01-06 16:53:00
11:53 AM,46.9,33.1,59,30.16,10.0,WSW,17.3,24.2,N/A,,Mostly Cloudy,240,2013-01-06 17:53:00
12:00 PM,48.2,33.8,58,30.15,10.0,SW,15.0,23.0,N/A,,Scattered Clouds,230,2013-01-06 18:00:00
12:08 PM,48.2,33.8,58,30.15,10.0,WSW,13.8,25.3,N/A,,Mostly Cloudy,250,2013-01-06 18:08:00
12:22 PM,46.4,32.0,57,30.15,10.0,West,13.8,21.9,N/A,,Mostly Cloudy,260,2013-01-06 18:22:00
12:53 PM,45.0,30.9,58,30.17,10.0,West,15.0,-,N/A,,Overcast,260,2013-01-06 18:53:00
1:53 PM,44.1,30.0,58,30.19,10.0,West,13.8,20.7,N/A,,Overcast,280,2013-01-06 19:53:00
2:53 PM,43.0,28.9,58,30.23,10.0,NNW,9.2,17.3,N/A,,Overcast,330,2013-01-06 20:53:00
3:53 PM,39.9,28.0,63,30.27,10.0,NW,9.2,-,N/A,,Overcast,320,2013-01-06 21:53:00
4:53 PM,37.0,26.1,65,30.30,10.0,NW,9.2,-,N/A,,Mostly Cloudy,310,2013-01-06 22:53:00
5:53 PM,35.1,23.0,61,30.34,10.0,NNW,9.2,18.4,N/A,,Mostly Cloudy,330,2013-01-06 23:53:00
6:53 PM,35.1,24.1,64,30.37,10.0,NNW,8.1,-,N/A,,Overcast,330,2013-01-07 00:53:00
7:53 PM,34.0,23.0,64,30.38,10.0,NW,5.8,-,N/A,,Mostly Cloudy,320,2013-01-07 01:53:00
8:53 PM,32.0,23.0,69,30.40,10.0,North,3.5,-,N/A,,Mostly Cloudy,10,2013-01-07 02:53:00
9:15 PM,30.2,23.0,75,30.38,10.0,Calm,Calm,-,N/A,,Scattered Clouds,0,2013-01-07 03:15:00
9:53 PM,30.9,21.9,69,30.41,9.0,North,4.6,-,N/A,,Clear,360,2013-01-07 03:53:00
10:53 PM,28.9,21.0,72,30.42,8.0,Calm,Calm,-,N/A,,Clear,0,2013-01-07 04:53:00
11:53 PM,28.0,21.0,75,30.42,8.0,Calm,Calm,-,N/A,,Clear,0,2013-01-07 05:53:00